Terminal Aerodrome Forecast
Issued by NWS

Home | Current Version | Previous Version | Graphics & Text | Print | Product List | Glossary On
Versions: 1 2 3 4 5 6 7 8 9 10 11 12 13 14 15 16 17 18 19 20 21 22 23 24 25 26 27 28
196
FTUS43 KABR 261337 CCA
TAFATY
TAF COR
KATY 261337Z 2614/2712 05004KT 5SM BR OVC005
      TEMPO 2614/2616 OVC010
     FM261600 04005KT P6SM OVC006
     FM262100 VRB04KT P6SM OVC010
     FM270100 VRB04KT P6SM OVC025
     FM271100 VRB03KT 1SM BR OVC015=

USA.gov is the U.S. government's official web portal to all federal, state and local government web resources and services.